createdAt,value
2018-05-04T00:00:11.988Z,87.55
2018-05-04T00:02:37.715Z,87.42
2018-05-04T00:05:03.473Z,88.65
2018-05-04T00:07:29.212Z,91.69
2018-05-04T00:09:54.967Z,89.09
2018-05-04T00:12:20.718Z,88.08
2018-05-04T00:14:46.456Z,87.66
2018-05-04T00:17:12.197Z,87.64
2018-05-04T00:19:37.920Z,87.50
2018-05-04T00:22:03.696Z,87.97
2018-05-04T00:24:29.436Z,88.53
2018-05-04T00:26:55.284Z,88.45
2018-05-04T00:29:21.032Z,88.19
2018-05-04T00:31:46.769Z,88.11
2018-05-04T00:34:13.002Z,88.11
2018-05-04T00:36:39.172Z,89.25
2018-05-04T00:39:05.088Z,91.26
2018-05-04T00:41:30.841Z,88.74
2018-05-04T00:43:56.599Z,87.78
2018-05-04T00:46:22.369Z,87.50
2018-05-04T00:48:48.106Z,88.33
2018-05-04T00:51:13.843Z,91.36
2018-05-04T00:53:51.932Z,93.20
2018-05-04T00:56:17.782Z,90.66
2018-05-04T00:58:43.748Z,91.15
2018-05-04T01:01:09.493Z,93.70
2018-05-04T01:03:35.259Z,94.18
2018-05-04T01:06:00.997Z,94.90
2018-05-04T01:08:26.729Z,94.36
2018-05-04T01:10:52.460Z,90.52
2018-05-04T01:13:18.206Z,89.02
2018-05-04T01:15:43.944Z,88.69
2018-05-04T01:18:09.690Z,90.03
2018-05-04T01:20:35.405Z,90.28
2018-05-04T01:23:01.137Z,90.41
2018-05-04T01:25:26.868Z,90.44
2018-05-04T01:27:52.604Z,88.58
2018-05-04T01:30:18.335Z,91.11
2018-05-04T01:32:44.085Z,91.63
2018-05-04T01:35:09.808Z,89.46
2018-05-04T01:37:35.548Z,89.11
2018-05-04T01:40:01.289Z,91.07
2018-05-04T01:42:27.032Z,88.35
2018-05-04T01:44:52.758Z,88.50
2018-05-04T01:47:18.489Z,89.52
2018-05-04T01:49:44.223Z,89.85
2018-05-04T01:52:09.952Z,90.50
2018-05-04T01:54:35.680Z,90.67
2018-05-04T01:57:01.462Z,93.20
2018-05-04T01:59:27.199Z,94.60
2018-05-04T02:01:52.931Z,93.57
2018-05-04T02:04:18.655Z,91.83
2018-05-04T02:06:44.385Z,88.85
2018-05-04T02:09:10.154Z,89.47
2018-05-04T02:11:35.900Z,89.38
2018-05-04T02:14:01.627Z,89.85
2018-05-04T02:16:27.357Z,89.09
2018-05-04T02:18:53.097Z,89.30
2018-05-04T02:21:18.842Z,89.05
2018-05-04T02:23:44.572Z,89.47
2018-05-04T02:26:10.289Z,89.33
2018-05-04T02:28:36.012Z,89.71
2018-05-04T02:31:01.742Z,89.26
2018-05-04T02:33:27.477Z,89.76
2018-05-04T02:35:53.208Z,90.35
2018-05-04T02:38:18.944Z,89.49
2018-05-04T02:40:44.671Z,90.15
2018-05-04T02:43:10.402Z,89.36
2018-05-04T02:45:36.131Z,88.94
2018-05-04T02:48:01.874Z,89.26
2018-05-04T02:50:27.616Z,89.75
2018-05-04T02:52:53.352Z,89.74
2018-05-04T02:55:19.142Z,89.52
2018-05-04T02:57:44.849Z,89.47
2018-05-04T03:00:10.585Z,90.27
2018-05-04T03:02:36.317Z,89.70
2018-05-04T03:05:02.062Z,89.52
2018-05-04T03:07:27.804Z,90.43
2018-05-04T03:09:53.544Z,89.98
2018-05-04T03:12:19.279Z,90.14
2018-05-04T03:14:45.016Z,90.09
2018-05-04T03:17:10.751Z,91.02
2018-05-04T03:19:36.479Z,91.80
2018-05-04T03:22:02.320Z,89.92
2018-05-04T03:24:27.975Z,89.42
2018-05-04T03:26:53.708Z,89.32
2018-05-04T03:29:19.431Z,89.90
2018-05-04T03:31:45.156Z,89.86
2018-05-04T03:34:10.895Z,91.03
2018-05-04T03:36:36.631Z,91.58
2018-05-04T03:39:02.384Z,93.06
2018-05-04T03:41:28.120Z,94.76
2018-05-04T03:43:53.868Z,95.50
2018-05-04T03:46:19.613Z,94.76
2018-05-04T03:48:45.383Z,90.86
2018-05-04T03:51:11.081Z,90.43
2018-05-04T03:53:36.808Z,91.30
2018-05-04T03:56:02.536Z,90.58
2018-05-04T04:11:53.440Z,94.08
2018-05-04T04:14:19.188Z,94.24
2018-05-04T04:16:44.924Z,91.74
2018-05-04T04:19:10.665Z,90.34
2018-05-04T04:21:36.393Z,90.58
2018-05-04T04:24:02.132Z,90.36
2018-05-04T04:26:27.863Z,89.48
2018-05-04T04:28:53.599Z,89.68
2018-05-04T04:31:19.325Z,90.74
2018-05-04T04:33:45.056Z,90.56
2018-05-04T04:36:10.795Z,90.07
2018-05-04T04:38:36.535Z,90.49
2018-05-04T04:41:02.261Z,90.78
2018-05-04T04:43:28.000Z,91.60
2018-05-04T04:45:53.732Z,92.41
2018-05-04T04:48:19.468Z,91.97
2018-05-04T04:50:45.196Z,92.48
2018-05-04T04:53:10.938Z,91.32
2018-05-04T04:55:36.664Z,91.91
2018-05-04T04:58:02.408Z,90.90
2018-05-04T05:00:28.150Z,91.70
2018-05-04T05:02:53.876Z,92.46
2018-05-04T05:05:19.613Z,93.15
2018-05-04T05:07:45.353Z,93.12
2018-05-04T05:10:11.106Z,92.38
2018-05-04T05:12:36.836Z,93.61
2018-05-04T05:15:02.568Z,94.72
2018-05-04T05:17:28.294Z,94.45
2018-05-04T05:19:54.032Z,95.09
2018-05-04T05:22:19.745Z,94.40
2018-05-04T05:24:45.496Z,93.46
2018-05-04T05:27:11.220Z,94.13
2018-05-04T05:29:37.033Z,94.45
2018-05-04T05:32:02.697Z,94.72
2018-05-04T05:34:28.415Z,94.11
2018-05-04T05:36:54.136Z,93.90
2018-05-04T05:39:19.863Z,93.07
2018-05-04T05:41:45.590Z,93.33
2018-05-04T05:44:11.333Z,93.61
2018-05-04T05:46:37.055Z,93.15
2018-05-04T05:49:02.794Z,93.61
2018-05-04T05:51:28.513Z,92.77
2018-05-04T05:53:54.231Z,92.55
2018-05-04T05:56:19.952Z,92.61
2018-05-04T05:58:45.696Z,91.38
2018-05-04T06:01:11.424Z,91.71
2018-05-04T06:03:37.155Z,91.01
2018-05-04T06:06:02.892Z,90.85
2018-05-04T06:08:28.604Z,89.52
2018-05-04T06:10:54.337Z,90.38
2018-05-04T06:13:20.067Z,90.22
2018-05-04T06:15:45.808Z,88.14
2018-05-04T06:18:11.543Z,87.51
2018-05-04T06:20:37.281Z,88.10
2018-05-04T06:23:03.028Z,87.99
2018-05-04T06:25:28.761Z,88.48
2018-05-04T06:27:54.513Z,86.32
2018-05-04T06:30:20.293Z,87.37
2018-05-04T06:32:46.045Z,84.64
2018-05-04T06:35:11.768Z,83.98
2018-05-04T06:37:37.500Z,83.37
2018-05-04T06:40:03.228Z,82.19
2018-05-04T06:42:28.956Z,79.80
2018-05-04T06:44:54.713Z,78.41
2018-05-04T06:47:20.463Z,77.27
2018-05-04T06:49:46.191Z,77.26
2018-05-04T06:52:11.905Z,75.93
2018-05-04T06:54:37.638Z,76.58
2018-05-04T06:57:03.354Z,75.75
2018-05-04T06:59:29.119Z,75.95
2018-05-04T07:01:54.866Z,74.11
2018-05-04T07:04:20.625Z,73.48
2018-05-04T07:06:46.361Z,76.94
2018-05-04T07:09:12.088Z,75.62
2018-05-04T07:11:37.813Z,74.95
2018-05-04T07:14:03.544Z,70.67
2018-05-04T07:16:29.285Z,72.86
2018-05-04T07:18:55.024Z,70.80
2018-05-04T07:21:20.761Z,67.43
2018-05-04T07:23:46.491Z,67.19
2018-05-04T07:26:12.228Z,67.21
2018-05-04T07:28:38.028Z,64.79
2018-05-04T07:31:03.736Z,64.03
2018-05-04T07:33:29.483Z,66.00
2018-05-04T07:35:55.259Z,68.16
2018-05-04T07:38:20.997Z,64.88
2018-05-04T07:40:46.778Z,62.74
2018-05-04T07:43:12.599Z,62.28
2018-05-04T07:45:38.273Z,60.58
2018-05-04T07:48:04.045Z,61.12
2018-05-04T07:50:29.792Z,61.04
2018-05-04T07:52:55.508Z,62.97
2018-05-04T07:55:21.257Z,63.51
2018-05-04T07:57:47.000Z,65.59
2018-05-04T08:00:12.762Z,63.35
2018-05-04T08:02:38.499Z,61.85
2018-05-04T08:05:04.257Z,60.66
2018-05-04T08:07:29.997Z,62.75
2018-05-04T08:09:55.736Z,61.25
2018-05-04T08:12:21.468Z,63.22
2018-05-04T08:14:47.187Z,61.96
2018-05-04T08:17:12.940Z,63.01
2018-05-04T08:19:38.664Z,63.32
2018-05-04T08:22:04.410Z,61.86
2018-05-04T08:24:30.176Z,59.91
2018-05-04T08:26:55.913Z,59.11
2018-05-04T08:29:21.647Z,58.76
2018-05-04T08:31:47.379Z,59.34
2018-05-04T08:34:13.139Z,59.95
2018-05-04T08:36:38.884Z,58.70
2018-05-04T08:39:04.617Z,58.21
2018-05-04T08:41:30.376Z,57.95
2018-05-04T08:43:56.096Z,56.00
2018-05-04T08:46:21.832Z,56.45
2018-05-04T08:48:47.559Z,53.41
2018-05-04T08:51:13.326Z,54.82
2018-05-04T08:53:39.045Z,54.56
2018-05-04T08:56:04.788Z,50.93
2018-05-04T08:58:30.517Z,51.04
2018-05-04T09:00:56.255Z,50.76
2018-05-04T09:03:21.989Z,50.84
2018-05-04T09:05:47.719Z,47.16
2018-05-04T09:08:13.440Z,47.65
2018-05-04T09:10:39.173Z,49.26
2018-05-04T09:13:04.904Z,46.62
2018-05-04T09:15:30.654Z,46.36
2018-05-04T09:17:56.380Z,45.28
2018-05-04T09:20:22.100Z,45.79
2018-05-04T09:22:47.844Z,42.51
2018-05-04T09:25:13.628Z,42.17
2018-05-04T09:27:39.324Z,44.39
2018-05-04T09:30:05.048Z,45.51
2018-05-04T09:32:30.792Z,45.46
2018-05-04T09:34:56.532Z,45.04
2018-05-04T09:37:22.279Z,47.98
2018-05-04T09:39:48.000Z,45.61
2018-05-04T09:42:13.738Z,44.71
2018-05-04T09:44:39.457Z,42.44
2018-05-04T09:47:05.213Z,42.17
2018-05-04T09:49:30.944Z,44.94
2018-05-04T09:51:56.681Z,45.39
2018-05-04T09:54:22.417Z,45.06
2018-05-04T09:56:48.150Z,41.83
2018-05-04T09:59:13.889Z,45.68
2018-05-04T10:01:39.634Z,42.96
2018-05-04T10:04:05.369Z,41.31
2018-05-04T10:06:31.150Z,40.04
2018-05-04T10:08:56.882Z,40.09
2018-05-04T10:11:22.624Z,42.28
2018-05-04T10:13:48.343Z,39.67
2018-05-04T10:16:14.088Z,38.56
2018-05-04T10:18:39.815Z,37.99
2018-05-04T10:21:05.881Z,38.59
2018-05-04T10:23:31.945Z,41.65
2018-05-04T10:25:58.028Z,37.08
2018-05-04T10:28:23.801Z,35.41
2018-05-04T10:30:49.915Z,36.16
2018-05-04T10:33:15.692Z,37.85
2018-05-04T10:35:41.422Z,37.61
2018-05-04T10:38:07.194Z,37.32
2018-05-04T10:40:32.944Z,37.45
2018-05-04T10:42:58.690Z,38.37
2018-05-04T10:45:24.425Z,37.75
2018-05-04T10:47:50.163Z,37.24
2018-05-04T10:50:15.934Z,35.91
2018-05-04T10:52:41.697Z,36.27
2018-05-04T10:55:07.456Z,37.05
2018-05-04T10:57:33.196Z,37.64
2018-05-04T10:59:58.944Z,37.84
2018-05-04T11:02:24.682Z,41.55
2018-05-04T11:04:50.414Z,39.05
2018-05-04T11:07:16.168Z,38.09
2018-05-04T11:09:41.908Z,38.51
2018-05-04T11:12:07.658Z,38.79
2018-05-04T11:14:33.388Z,38.39
2018-05-04T11:17:04.158Z,39.08
2018-05-04T11:19:30.335Z,36.28
2018-05-04T11:21:56.060Z,36.38
2018-05-04T11:24:25.002Z,35.13
2018-05-04T11:26:52.248Z,35.25
2018-05-04T11:29:18.077Z,35.08
2018-05-04T11:31:43.826Z,36.25
2018-05-04T11:34:09.616Z,36.89
2018-05-04T11:36:35.358Z,36.40
2018-05-04T11:39:01.107Z,36.35
2018-05-04T11:41:27.042Z,37.26
2018-05-04T11:43:52.800Z,37.09
2018-05-04T11:46:18.528Z,36.23
2018-05-04T11:48:44.281Z,34.52
2018-05-04T11:51:10.014Z,34.84
2018-05-04T11:53:35.959Z,37.20
2018-05-04T11:56:01.886Z,36.38
2018-05-04T11:58:27.851Z,36.11
2018-05-04T12:00:53.834Z,37.72
2018-05-04T12:03:19.807Z,36.72
2018-05-04T12:05:45.755Z,35.91
2018-05-04T12:08:11.504Z,35.25
2018-05-04T12:10:37.224Z,36.33
2018-05-04T12:13:02.983Z,37.24
2018-05-04T12:15:28.726Z,35.64
2018-05-04T12:17:54.465Z,34.57
2018-05-04T12:20:20.213Z,35.04
2018-05-04T12:22:46.236Z,34.03
2018-05-04T12:25:11.947Z,35.85
2018-05-04T12:27:37.688Z,35.38
2018-05-04T12:30:03.436Z,35.13
2018-05-04T12:32:29.180Z,34.47
2018-05-04T12:34:55.081Z,33.96
2018-05-04T12:37:20.841Z,34.88
2018-05-04T12:39:46.569Z,35.15
2018-05-04T12:42:12.300Z,36.41
2018-05-04T12:44:38.035Z,36.60
2018-05-04T12:47:03.829Z,35.84
2018-05-04T12:49:29.717Z,36.31
2018-05-04T12:51:55.643Z,35.20
2018-05-04T12:54:21.599Z,37.90
2018-05-04T12:56:47.597Z,35.09
2018-05-04T12:59:13.340Z,34.86
2018-05-04T13:01:39.068Z,35.34
2018-05-04T13:04:04.801Z,35.07
2018-05-04T13:06:30.527Z,34.09
2018-05-04T13:08:56.288Z,35.11
2018-05-04T13:11:22.152Z,35.36
2018-05-04T13:13:48.070Z,33.47
2018-05-04T13:16:13.952Z,35.15
2018-05-04T13:18:39.852Z,35.23
2018-05-04T13:21:05.577Z,34.06
2018-05-04T13:23:31.316Z,34.31
2018-05-04T13:25:57.043Z,34.29
2018-05-04T13:28:22.784Z,35.55
2018-05-04T13:30:48.513Z,36.31
2018-05-04T13:33:14.252Z,35.94
2018-05-04T13:35:39.987Z,35.57
2018-05-04T13:38:05.724Z,35.06
2018-05-04T13:40:31.460Z,33.96
2018-05-04T13:42:57.212Z,33.69
2018-05-04T13:45:22.942Z,35.22
2018-05-04T13:47:48.697Z,35.93
2018-05-04T13:50:14.420Z,35.22
2018-05-04T13:52:40.148Z,34.89
2018-05-04T13:55:05.893Z,34.66
2018-05-04T13:57:31.615Z,35.68
2018-05-04T13:59:57.377Z,35.22
2018-05-04T14:02:23.124Z,35.34
2018-05-04T14:04:48.880Z,34.83
2018-05-04T14:07:14.621Z,34.87
2018-05-04T14:09:40.373Z,35.13
2018-05-04T14:12:06.116Z,36.83
2018-05-04T14:14:31.856Z,36.05
2018-05-04T14:16:57.609Z,34.43
2018-05-04T14:19:23.348Z,37.74
2018-05-04T14:21:49.086Z,37.05
2018-05-04T14:24:14.827Z,37.41
2018-05-04T14:26:40.560Z,38.07
2018-05-04T14:29:06.308Z,37.05
2018-05-04T14:31:32.087Z,38.31
2018-05-04T14:33:57.828Z,36.27
2018-05-04T14:36:23.561Z,38.78
2018-05-04T14:38:49.308Z,42.44
2018-05-04T14:41:15.038Z,38.02
2018-05-04T14:43:40.781Z,36.99
2018-05-04T14:46:06.577Z,35.77
2018-05-04T14:48:32.327Z,36.18
2018-05-04T14:50:58.054Z,36.73
2018-05-04T14:53:23.812Z,36.26
2018-05-04T14:55:49.548Z,36.73
2018-05-04T14:58:15.332Z,37.98
2018-05-04T15:00:41.073Z,37.68
2018-05-04T15:03:06.804Z,36.74
2018-05-04T15:05:32.550Z,37.96
2018-05-04T15:07:58.282Z,40.06
2018-05-04T15:10:24.025Z,36.19
2018-05-04T15:12:49.757Z,36.57
2018-05-04T15:15:15.497Z,36.81
2018-05-04T15:17:41.240Z,35.98
2018-05-04T15:20:06.981Z,36.37
2018-05-04T15:22:32.713Z,37.38
2018-05-04T15:24:58.516Z,37.09
2018-05-04T15:27:24.185Z,37.13
2018-05-04T15:29:49.964Z,37.12
2018-05-04T15:32:15.707Z,37.73
2018-05-04T15:34:41.440Z,36.54
2018-05-04T15:37:07.173Z,36.53
2018-05-04T15:39:32.912Z,37.15
2018-05-04T15:41:58.639Z,36.91
2018-05-04T15:44:24.385Z,37.20
2018-05-04T15:46:50.111Z,37.18
2018-05-04T15:49:19.833Z,36.27
2018-05-04T15:51:51.809Z,35.81
2018-05-04T15:54:17.573Z,36.54
2018-05-04T15:56:43.321Z,37.63
2018-05-04T15:59:09.124Z,37.15
2018-05-04T16:01:34.861Z,36.50
2018-05-04T16:04:00.626Z,36.31
2018-05-04T16:06:26.428Z,36.09
2018-05-04T16:08:52.273Z,35.41
2018-05-04T16:11:18.005Z,35.85
2018-05-04T16:13:43.754Z,34.30
2018-05-04T16:16:09.474Z,34.87
2018-05-04T16:18:35.193Z,35.70
2018-05-04T16:21:00.941Z,36.95
2018-05-04T16:23:26.660Z,39.46
2018-05-04T16:25:52.400Z,39.71
2018-05-04T16:28:18.117Z,41.25
2018-05-04T16:30:43.874Z,41.13
2018-05-04T16:33:09.618Z,40.30
2018-05-04T16:35:35.406Z,41.40
2018-05-04T16:38:01.145Z,42.42
2018-05-04T16:40:26.896Z,44.96
2018-05-04T16:42:52.664Z,45.26
2018-05-04T16:45:18.485Z,45.32
2018-05-04T16:47:50.348Z,45.43
2018-05-04T16:50:16.085Z,46.28
2018-05-04T16:52:41.821Z,47.00
2018-05-04T16:55:07.555Z,47.34
2018-05-04T16:57:33.307Z,48.11
2018-05-04T16:59:59.112Z,47.30
2018-05-04T17:02:24.928Z,46.67
2018-05-04T17:04:50.688Z,47.30
2018-05-04T17:07:16.448Z,47.21
2018-05-04T17:09:42.180Z,48.33
2018-05-04T17:12:07.930Z,47.82
2018-05-04T17:14:33.660Z,48.13
2018-05-04T17:16:59.412Z,48.30
2018-05-04T17:19:25.244Z,48.63
2018-05-04T17:21:51.040Z,48.41
2018-05-04T17:24:16.864Z,48.30
2018-05-04T17:26:42.609Z,48.41
2018-05-04T17:29:08.352Z,49.33
2018-05-04T17:31:34.095Z,50.06
2018-05-04T17:33:59.871Z,51.05
2018-05-04T17:36:25.567Z,50.90
2018-05-04T17:38:51.296Z,51.09
2018-05-04T17:41:17.062Z,50.21
2018-05-04T17:43:42.818Z,50.52
2018-05-04T17:46:08.574Z,50.44
2018-05-04T17:48:34.375Z,50.57
2018-05-04T17:51:00.157Z,51.39
2018-05-04T17:53:26.020Z,50.86
2018-05-04T17:55:51.839Z,51.02
2018-05-04T17:58:17.580Z,50.88
2018-05-04T18:00:43.385Z,51.33
2018-05-04T18:03:09.134Z,51.90
2018-05-04T18:05:34.983Z,52.92
2018-05-04T18:08:00.706Z,51.89
2018-05-04T18:10:26.429Z,51.87
2018-05-04T18:12:52.176Z,52.24
2018-05-04T18:15:17.908Z,52.67
2018-05-04T18:17:43.672Z,53.88
2018-05-04T18:20:09.389Z,54.07
2018-05-04T18:22:35.119Z,54.15
2018-05-04T18:25:00.849Z,55.24
2018-05-04T18:27:26.584Z,54.89
2018-05-04T18:29:52.300Z,55.45
2018-05-04T18:32:18.061Z,56.15
2018-05-04T18:34:43.788Z,56.03
2018-05-04T18:37:09.527Z,56.05
2018-05-04T18:39:35.266Z,55.61
2018-05-04T18:42:00.996Z,56.30
2018-05-04T18:44:26.711Z,56.61
2018-05-04T18:46:52.449Z,56.82
2018-05-04T18:49:18.175Z,56.89
2018-05-04T18:51:43.921Z,57.16
2018-05-04T18:54:09.655Z,57.75
2018-05-04T18:56:35.408Z,58.11
2018-05-04T18:59:01.140Z,58.97
2018-05-04T19:01:26.878Z,59.40
2018-05-04T19:03:52.600Z,59.46
2018-05-04T19:06:18.340Z,59.27
2018-05-04T19:08:44.069Z,59.28
2018-05-04T19:11:09.813Z,60.34
2018-05-04T19:13:35.549Z,61.17
2018-05-04T19:16:01.289Z,60.45
2018-05-04T19:18:27.029Z,59.90
2018-05-04T19:20:52.792Z,60.89
2018-05-04T19:23:18.525Z,59.95
2018-05-04T19:25:44.260Z,60.02
2018-05-04T19:28:10.006Z,60.71
2018-05-04T19:30:35.756Z,60.43
2018-05-04T19:33:01.493Z,61.10
2018-05-04T19:35:27.242Z,61.34
2018-05-04T19:37:52.989Z,62.45
2018-05-04T19:40:18.720Z,62.65
2018-05-04T19:42:44.461Z,64.29
2018-05-04T19:45:10.196Z,64.71
2018-05-04T19:47:36.665Z,65.23
2018-05-04T19:50:02.424Z,65.46
2018-05-04T19:52:28.165Z,66.71
2018-05-04T19:54:53.897Z,66.41
2018-05-04T19:57:19.646Z,66.12
2018-05-04T19:59:45.392Z,68.21
2018-05-04T20:02:11.136Z,67.00
2018-05-04T20:04:36.865Z,67.54
2018-05-04T20:07:02.689Z,67.17
2018-05-04T20:09:28.368Z,67.33
2018-05-04T20:11:54.118Z,67.92
2018-05-04T20:14:19.845Z,68.20
2018-05-04T20:16:46.035Z,68.82
2018-05-04T20:19:11.769Z,68.75
2018-05-04T20:21:37.500Z,69.16
2018-05-04T20:24:03.242Z,69.60
2018-05-04T20:26:28.997Z,71.49
2018-05-04T20:28:54.765Z,71.00
2018-05-04T20:31:20.477Z,71.58
2018-05-04T20:33:46.213Z,70.47
2018-05-04T20:36:11.941Z,71.49
2018-05-04T20:38:37.743Z,71.01
2018-05-04T20:41:03.492Z,71.40
2018-05-04T20:43:29.228Z,72.68
2018-05-04T20:45:54.960Z,71.37
2018-05-04T20:48:20.705Z,71.63
2018-05-04T20:50:46.445Z,71.64
2018-05-04T20:53:12.204Z,71.58
2018-05-04T20:55:37.945Z,71.46
2018-05-04T20:58:03.679Z,71.33
2018-05-04T21:00:29.395Z,71.79
2018-05-04T21:02:55.145Z,72.08
2018-05-04T21:05:20.869Z,72.62
2018-05-04T21:07:46.616Z,74.17
2018-05-04T21:10:12.351Z,75.45
2018-05-04T21:12:38.080Z,74.61
2018-05-04T21:15:03.813Z,74.04
2018-05-04T21:17:29.531Z,74.54
2018-05-04T21:19:55.333Z,74.76
2018-05-04T21:22:21.012Z,76.88
2018-05-04T21:24:46.753Z,76.06
2018-05-04T21:27:12.489Z,75.38
2018-05-04T21:29:38.216Z,74.70
2018-05-04T21:32:03.943Z,75.05
2018-05-04T21:34:29.672Z,75.71
2018-05-04T21:36:55.399Z,77.57
2018-05-04T21:39:21.140Z,77.47
2018-05-04T21:41:46.874Z,77.55
2018-05-04T21:44:12.595Z,77.70
2018-05-04T21:46:38.309Z,77.31
2018-05-04T21:49:04.050Z,78.53
2018-05-04T21:51:29.777Z,76.57
2018-05-04T21:53:55.507Z,76.36
2018-05-04T21:56:21.228Z,78.53
2018-05-04T21:58:46.960Z,79.37
2018-05-04T22:01:12.701Z,79.27
2018-05-04T22:03:38.440Z,79.74
2018-05-04T22:06:04.171Z,80.04
2018-05-04T22:08:29.929Z,80.27
2018-05-04T22:10:55.665Z,80.97
2018-05-04T22:13:21.401Z,79.54
2018-05-04T22:15:47.133Z,78.45
2018-05-04T22:18:12.876Z,79.29
2018-05-04T22:20:38.605Z,81.38
2018-05-04T22:23:04.329Z,81.75
2018-05-04T22:25:30.065Z,81.82
2018-05-04T22:27:55.784Z,81.98
2018-05-04T22:30:21.521Z,80.31
2018-05-04T22:32:47.252Z,80.67
2018-05-04T22:35:12.977Z,81.31
2018-05-04T22:37:38.704Z,79.73
2018-05-04T22:40:04.424Z,79.75
2018-05-04T22:42:30.164Z,79.62
2018-05-04T22:44:55.899Z,80.25
2018-05-04T22:47:21.647Z,80.19
2018-05-04T22:49:47.365Z,80.14
2018-05-04T22:52:13.080Z,80.79
2018-05-04T22:54:38.817Z,81.51
2018-05-04T22:57:04.537Z,81.52
2018-05-04T22:59:30.288Z,81.55
2018-05-04T23:01:56.024Z,82.36
2018-05-04T23:04:21.781Z,81.38
2018-05-04T23:06:47.535Z,80.40
2018-05-04T23:09:13.281Z,80.63
2018-05-04T23:11:39.014Z,80.23
2018-05-04T23:14:04.744Z,80.83
2018-05-04T23:16:30.533Z,80.96
2018-05-04T23:18:56.215Z,81.61
2018-05-04T23:21:21.948Z,82.93
2018-05-04T23:23:47.688Z,81.76
2018-05-04T23:26:13.424Z,80.76
2018-05-04T23:28:39.164Z,81.78
2018-05-04T23:31:04.893Z,81.11
2018-05-04T23:33:30.654Z,81.75
2018-05-04T23:35:56.386Z,82.54
2018-05-04T23:38:22.124Z,81.81
2018-05-04T23:40:47.860Z,81.25
2018-05-04T23:43:13.598Z,81.97
2018-05-04T23:45:39.324Z,82.08
2018-05-04T23:48:05.078Z,82.09
2018-05-04T23:50:30.941Z,82.08
2018-05-04T23:52:56.671Z,81.76
2018-05-04T23:55:22.409Z,82.30
2018-05-04T23:57:48.154Z,83.27
